Time;durP1;ratioP1;P1;durP2;ratioP2;P2;SDS_P1;SDS_P2;PMS_P1;PMS_P2;Temp;Humidity;BMP_temperature;BMP_pressure;BME280_temperature;BME280_humidity;BME280_pressure;Samples;Min_cycle;Max_cycle;Signal;HPM_P1;HPM_P2
2022/04/17 00:02:50;;;;;;;1.80;1.23;;;;;;;6.84;44.50;101393.59;5587988;31;34538;-64
2022/04/17 00:05:53;;;;;;;1.83;1.12;;;;;;;6.83;44.60;101391.91;5587934;31;34336;-64
2022/04/17 00:08:57;;;;;;;2.33;1.20;;;;;;;6.77;44.76;101388.94;5587829;31;33968;-64
2022/04/17 00:12:01;;;;;;;2.50;1.55;;;;;;;6.73;43.62;101390.13;5587844;31;33951;-65
2022/04/17 00:15:04;;;;;;;2.22;1.17;;;;;;;6.70;43.44;101378.00;5590485;31;33996;-63
2022/04/17 00:18:08;;;;;;;2.53;1.42;;;;;;;6.67;43.80;101394.09;5589991;31;33997;-63
2022/04/17 00:21:11;;;;;;;2.92;1.40;;;;;;;6.63;43.68;101389.16;5590459;31;34067;-63
2022/04/17 00:24:15;;;;;;;2.30;1.50;;;;;;;6.61;43.73;101393.69;5590900;31;33928;-63
2022/04/17 00:27:18;;;;;;;2.42;1.35;;;;;;;6.58;43.75;101378.97;5576372;31;33321;-63
2022/04/17 00:30:21;;;;;;;2.45;1.40;;;;;;;6.55;43.99;101376.56;5590390;31;34112;-63
2022/04/17 00:33:25;;;;;;;1.55;1.02;;;;;;;6.51;44.34;101375.97;5590465;31;33890;-63
2022/04/17 00:36:28;;;;;;;2.10;1.30;;;;;;;6.48;44.14;101380.62;5576732;31;33071;-63
2022/04/17 00:39:31;;;;;;;2.15;1.30;;;;;;;6.46;44.20;101387.81;5589507;31;32472;-63
2022/04/17 00:42:34;;;;;;;1.60;1.10;;;;;;;6.45;44.15;101378.22;5589683;31;32387;-63
2022/04/17 00:45:36;;;;;;;1.67;1.17;;;;;;;6.42;44.12;101386.37;5589700;31;34664;-63
2022/04/17 00:48:39;;;;;;;1.75;1.20;;;;;;;6.41;44.05;101382.87;5590320;31;34044;-63
2022/04/17 00:51:43;;;;;;;1.92;1.30;;;;;;;6.39;44.22;101381.34;5589422;31;32597;-63
2022/04/17 00:54:48;;;;;;;1.42;1.17;;;;;;;6.38;44.21;101385.75;5590447;31;35294;-65
2022/04/17 00:57:50;;;;;;;1.85;1.20;;;;;;;6.31;44.05;101379.25;5576692;31;32403;-65
2022/04/17 01:00:53;;;;;;;1.67;1.00;;;;;;;6.29;44.13;101368.03;5590280;31;34571;-64
2022/04/17 01:03:56;;;;;;;2.70;1.45;;;;;;;6.29;43.93;101375.09;5590180;31;34043;-64
2022/04/17 01:06:58;;;;;;;2.95;1.05;;;;;;;6.27;44.27;101380.47;5590069;31;34016;-65
2022/04/17 01:10:03;;;;;;;1.58;1.10;;;;;;;6.26;44.03;101373.50;5590521;31;33950;-64
2022/04/17 01:13:08;;;;;;;1.40;1.10;;;;;;;6.23;44.46;101373.75;5590220;31;34550;-64
2022/04/17 01:16:11;;;;;;;2.92;1.40;;;;;;;6.21;44.32;101372.16;5590067;31;35211;-64
2022/04/17 01:19:14;;;;;;;2.28;1.23;;;;;;;6.22;44.98;101361.50;5576072;31;34433;-62
2022/04/17 01:22:18;;;;;;;1.42;1.02;;;;;;;6.18;45.21;101349.53;5589917;31;34083;-62
2022/04/17 01:28:43;;;;;;;2.00;1.30;;;;;;;6.15;44.59;101355.00;5589889;31;34105;-64
2022/04/17 01:31:46;;;;;;;1.27;1.02;;;;;;;6.12;44.40;101353.47;5589872;31;35170;-64
2022/04/17 01:34:50;;;;;;;4.55;1.20;;;;;;;6.07;44.32;101352.97;5575974;31;33592;-64
2022/04/17 01:37:52;;;;;;;1.70;1.27;;;;;;;6.07;44.47;101349.50;5589431;31;32670;-64
2022/04/17 01:40:55;;;;;;;2.35;1.30;;;;;;;6.06;44.44;101353.06;5589943;31;34026;-64
2022/04/17 01:43:57;;;;;;;7.12;1.10;;;;;;;6.04;43.82;101341.84;5589960;31;33940;-65
2022/04/17 01:47:04;;;;;;;1.60;1.10;;;;;;;6.02;43.55;101349.84;5590255;31;34581;-65
2022/04/17 01:50:07;;;;;;;2.20;1.30;;;;;;;6.01;43.75;101349.94;5589976;31;34300;-63
2022/04/17 01:53:10;;;;;;;1.73;1.05;;;;;;;5.98;43.76;101350.19;5589708;31;34149;-62
2022/04/17 01:56:13;;;;;;;1.42;1.23;;;;;;;5.96;44.02;101352.09;5589798;31;33963;-62
2022/04/17 01:59:20;;;;;;;2.97;1.20;;;;;;;5.92;44.26;101350.62;5589854;31;34105;-62
2022/04/17 02:02:23;;;;;;;2.47;1.33;;;;;;;5.87;44.49;101352.78;5589709;31;34369;-62
2022/04/17 02:05:26;;;;;;;1.62;1.10;;;;;;;5.82;44.22;101344.34;5588966;31;33945;-63
2022/04/17 02:08:29;;;;;;;2.22;1.10;;;;;;;5.82;44.64;101346.97;5589977;31;33964;-63
2022/04/17 02:11:32;;;;;;;1.85;1.23;;;;;;;5.77;43.51;101341.22;5589769;31;34654;-63
2022/04/17 02:14:34;;;;;;;2.08;1.10;;;;;;;5.71;43.71;101339.88;5589903;31;34066;-63
2022/04/17 02:17:37;;;;;;;2.62;1.20;;;;;;;5.72;44.21;101340.72;5588906;31;32729;-62
2022/04/17 02:20:39;;;;;;;2.05;1.25;;;;;;;5.71;44.16;101336.41;5589577;31;35265;-64
2022/04/17 02:23:44;;;;;;;3.00;1.10;;;;;;;5.63;43.87;101332.53;5589520;31;34176;-65
2022/04/17 02:26:46;;;;;;;3.67;1.65;;;;;;;5.61;43.92;101345.00;5589423;31;35188;-65
2022/04/17 02:29:49;;;;;;;1.90;1.10;;;;;;;5.60;43.34;101345.94;5588587;31;34041;-65
2022/04/17 02:32:52;;;;;;;4.30;1.17;;;;;;;5.52;43.29;101334.25;5588484;31;32402;-64
2022/04/17 02:35:55;;;;;;;3.30;1.50;;;;;;;5.49;43.44;101332.72;5589109;31;35188;-64
2022/04/17 02:38:58;;;;;;;3.08;1.50;;;;;;;5.45;43.37;101333.06;5589413;31;34000;-64
2022/04/17 02:42:01;;;;;;;2.78;1.05;;;;;;;5.39;43.62;101326.44;5589313;31;34642;-64
2022/04/17 02:45:04;;;;;;;1.90;1.30;;;;;;;5.33;43.23;101328.66;5588347;31;32478;-64
2022/04/17 02:48:07;;;;;;;2.62;1.12;;;;;;;5.25;43.55;101326.59;5575558;31;32771;-64
2022/04/17 02:51:11;;;;;;;1.33;1.20;;;;;;;5.18;43.91;101323.56;5589211;31;34640;-64
2022/04/17 02:54:14;;;;;;;2.37;1.30;;;;;;;5.08;44.68;101319.91;5588300;31;34120;-64
2022/04/17 02:57:16;;;;;;;2.17;1.20;;;;;;;5.08;44.35;101325.16;5589176;31;35324;-64
2022/04/17 03:00:19;;;;;;;2.12;1.08;;;;;;;4.97;44.51;101327.75;5588466;31;34540;-64
2022/04/17 03:06:43;;;;;;;1.20;0.90;;;;;;;4.92;44.54;101327.22;5588969;31;34518;-64
2022/04/17 03:09:45;;;;;;;1.83;1.05;;;;;;;4.87;44.77;101331.97;5589014;31;34014;-64
2022/04/17 03:12:48;;;;;;;2.00;1.10;;;;;;;4.94;44.28;101325.31;5588928;31;33885;-64
2022/04/17 03:15:50;;;;;;;1.65;1.10;;;;;;;4.94;43.71;101335.81;5588754;31;33949;-63
2022/04/17 03:18:53;;;;;;;1.40;1.02;;;;;;;4.97;43.36;101335.63;5588790;31;34081;-63
2022/04/17 03:21:56;;;;;;;1.52;1.27;;;;;;;4.97;43.11;101327.75;5588670;31;33998;-64
2022/04/17 03:25:06;;;;;;;1.58;1.10;;;;;;;4.97;42.75;101319.00;5588103;31;34124;-63
2022/04/17 03:28:08;;;;;;;1.90;1.10;;;;;;;4.89;43.18;101332.69;5588534;31;34144;-64
2022/04/17 03:31:11;;;;;;;1.95;1.20;;;;;;;4.86;43.03;101330.28;5587783;31;32438;-64
2022/04/17 03:34:14;;;;;;;1.30;0.90;;;;;;;4.75;43.48;101332.81;5587855;31;33335;-64
2022/04/17 03:37:17;;;;;;;2.50;1.10;;;;;;;4.66;43.52;101336.94;5588539;31;33829;-64
2022/04/17 03:40:20;;;;;;;1.55;1.00;;;;;;;4.50;44.93;101335.47;5588464;31;35185;-64
2022/04/17 03:43:23;;;;;;;1.08;0.90;;;;;;;4.36;45.13;101333.78;5588376;31;33976;-64
2022/04/17 03:46:26;;;;;;;1.70;1.15;;;;;;;4.36;45.37;101334.63;5588248;31;34729;-64
2022/04/17 03:49:29;;;;;;;2.12;1.33;;;;;;;4.28;45.30;101349.22;5589540;31;32411;-64
2022/04/17 03:52:42;;;;;;;4.07;1.27;;;;;;;4.26;45.96;101343.25;5590990;31;34555;-64
2022/04/17 03:55:45;;;;;;;1.60;1.05;;;;;;;4.17;46.49;101334.19;5590717;31;34975;-63
2022/04/17 03:58:48;;;;;;;1.17;1.00;;;;;;;4.11;46.37;101350.38;5590290;31;32438;-64
2022/04/17 04:01:50;;;;;;;1.55;0.88;;;;;;;4.14;46.88;101351.94;5590879;31;34622;-64
2022/04/17 04:04:53;;;;;;;2.10;0.93;;;;;;;4.08;47.92;101353.19;5590153;31;32636;-64
2022/04/17 04:07:56;;;;;;;2.42;1.80;;;;;;;4.08;48.16;101361.06;5590053;31;34020;-64
2022/04/17 04:10:58;;;;;;;4.03;1.30;;;;;;;4.14;48.78;101359.81;5589811;31;33228;-63
2022/04/17 04:14:03;;;;;;;2.33;1.33;;;;;;;4.14;48.44;101368.53;5589993;31;33936;-63
2022/04/17 04:17:06;;;;;;;1.10;0.90;;;;;;;4.04;49.24;101370.09;5591028;31;33997;-64
2022/04/17 04:20:10;;;;;;;3.28;1.10;;;;;;;4.15;49.19;101366.75;5590561;31;34417;-64
2022/04/17 04:23:13;;;;;;;2.97;1.25;;;;;;;4.21;49.42;101367.16;5589977;31;32353;-64
2022/04/17 04:26:15;;;;;;;2.00;1.15;;;;;;;4.18;49.98;101364.75;5590435;31;35473;-63
2022/04/17 04:29:18;;;;;;;2.05;1.12;;;;;;;4.22;50.46;101365.37;5590587;31;34144;-63
2022/04/17 04:32:21;;;;;;;3.08;1.15;;;;;;;4.28;50.23;101363.19;5590275;31;34270;-63
2022/04/17 04:35:29;;;;;;;1.98;1.10;;;;;;;4.36;49.42;101360.88;5590518;31;33975;-63
2022/04/17 04:38:32;;;;;;;1.95;1.20;;;;;;;4.38;49.75;101373.94;5590417;31;33998;-64
2022/04/17 04:41:35;;;;;;;1.92;1.35;;;;;;;4.42;48.89;101377.19;5589778;31;32726;-64
2022/04/17 04:44:38;;;;;;;2.08;1.23;;;;;;;4.45;48.92;101363.84;5590427;31;34027;-64
2022/04/17 04:47:42;;;;;;;4.10;1.73;;;;;;;4.47;49.04;101370.66;5590370;31;34812;-64
2022/04/17 04:50:44;;;;;;;1.80;1.12;;;;;;;4.62;48.95;101363.53;5590438;31;33909;-64
2022/04/17 04:53:48;;;;;;;1.92;1.33;;;;;;;4.73;48.58;101368.91;5590303;31;34629;-64
2022/04/17 04:56:51;;;;;;;2.95;1.58;;;;;;;4.75;48.52;101370.44;5590123;31;34213;-63
2022/04/17 04:59:54;;;;;;;3.37;1.40;;;;;;;4.88;47.71;101365.19;5590586;31;33931;-63
2022/04/17 05:02:56;;;;;;;2.50;1.10;;;;;;;4.88;48.19;101367.84;5590027;31;34108;-63
2022/04/17 05:06:00;;;;;;;1.87;1.20;;;;;;;4.87;47.56;101367.94;5590208;31;34688;-64
2022/04/17 05:09:02;;;;;;;1.62;1.10;;;;;;;4.94;47.38;101364.75;5590140;31;34111;-63
2022/04/17 05:12:05;;;;;;;3.05;1.00;;;;;;;4.95;47.75;101357.72;5589562;31;34718;-63
2022/04/17 05:15:11;;;;;;;1.58;1.10;;;;;;;5.05;48.23;101362.22;5589602;31;32302;-63
2022/04/17 05:18:14;;;;;;;2.95;1.30;;;;;;;5.03;47.24;101365.91;5589326;31;33465;-63
2022/04/17 05:21:19;;;;;;;2.25;1.45;;;;;;;5.08;47.42;101364.63;5590192;31;34713;-63
2022/04/17 05:24:23;;;;;;;2.75;1.48;;;;;;;5.16;47.50;101364.94;5589118;31;32207;-63
2022/04/17 05:27:27;;;;;;;3.80;1.50;;;;;;;5.27;46.55;101363.34;5589703;31;34924;-63
2022/04/17 05:30:30;;;;;;;2.00;1.10;;;;;;;5.31;46.62;101356.88;5588851;31;32701;-64
2022/04/17 05:33:32;;;;;;;2.37;1.40;;;;;;;5.30;45.90;101363.09;5589548;31;33453;-64
2022/04/17 05:36:35;;;;;;;2.22;1.27;;;;;;;5.39;45.71;101360.66;5589324;31;32731;-63
2022/04/17 05:39:37;;;;;;;4.43;1.40;;;;;;;5.37;44.93;101365.19;5589360;31;33712;-64
2022/04/17 05:42:40;;;;;;;1.98;1.10;;;;;;;5.36;45.47;101365.28;5589021;31;32750;-63
2022/04/17 05:45:43;;;;;;;2.20;1.25;;;;;;;5.55;45.11;101353.34;5590235;31;34674;-64
2022/04/17 05:48:46;;;;;;;2.80;1.20;;;;;;;5.55;45.32;101355.13;5588960;31;33799;-63
2022/04/17 05:51:49;;;;;;;1.90;1.20;;;;;;;5.65;44.91;101356.97;5588815;31;33074;-63
2022/04/17 05:54:52;;;;;;;1.60;1.20;;;;;;;5.61;44.50;101355.53;5589859;31;34010;-63
2022/04/17 05:57:55;;;;;;;3.55;1.20;;;;;;;5.81;45.48;101363.75;5588679;31;32621;-64
2022/04/17 06:00:57;;;;;;;2.30;1.50;;;;;;;5.72;44.63;101365.25;5590174;31;34568;-63
2022/04/17 06:04:03;;;;;;;2.10;1.10;;;;;;;5.79;44.99;101361.22;5589854;31;34108;-63
2022/04/17 06:07:05;;;;;;;2.12;1.40;;;;;;;5.93;44.54;101350.53;5589625;31;34649;-64
2022/04/17 06:10:10;;;;;;;3.72;1.37;;;;;;;6.03;45.12;101358.59;5589069;31;33989;-63
2022/04/17 06:13:12;;;;;;;2.53;1.30;;;;;;;6.02;44.62;101351.63;5589868;31;34208;-64
2022/04/17 06:16:15;;;;;;;2.97;1.40;;;;;;;6.06;43.68;101360.97;5589595;31;33997;-64
2022/04/17 06:19:18;;;;;;;2.40;1.45;;;;;;;6.20;43.48;101357.31;5588688;31;32981;-63
2022/04/17 06:22:21;;;;;;;2.22;1.30;;;;;;;6.37;44.06;101364.78;5588434;31;32407;-63
2022/04/17 06:25:24;;;;;;;2.50;1.60;;;;;;;6.47;43.39;101363.13;5588362;31;33222;-63
2022/04/17 06:28:27;;;;;;;2.97;1.52;;;;;;;6.52;43.00;101358.34;5589188;31;34055;-63
2022/04/17 06:31:30;;;;;;;1.65;1.00;;;;;;;6.70;42.47;101366.63;5588379;31;32863;-64
2022/04/17 06:34:33;;;;;;;1.98;1.30;;;;;;;6.85;41.51;101362.78;5589356;31;33892;-64
2022/04/17 06:37:51;;;;;;;1.90;1.00;;;;;;;7.07;41.29;101349.59;5588938;31;33986;-64
2022/04/17 06:40:54;;;;;;;2.03;1.40;;;;;;;6.66;39.52;101355.47;5588810;31;33388;-63
2022/04/17 06:43:57;;;;;;;3.60;1.58;;;;;;;7.08;39.99;101355.69;5588405;31;32365;-64
2022/04/17 06:47:00;;;;;;;3.92;1.55;;;;;;;7.18;39.80;101364.56;5588446;31;32303;-63
2022/04/17 06:50:02;;;;;;;1.92;1.17;;;;;;;7.23;40.01;101357.12;5575065;31;34612;-63
2022/04/17 06:53:05;;;;;;;2.15;1.10;;;;;;;7.48;39.46;101366.56;5589284;31;34057;-63
2022/04/17 06:56:12;;;;;;;1.65;1.10;;;;;;;8.19;38.68;101364.12;5588455;31;32340;-64
2022/04/17 06:59:19;;;;;;;1.45;1.05;;;;;;;8.26;38.06;101360.00;5588441;31;33069;-63
2022/04/17 07:02:22;;;;;;;1.58;1.20;;;;;;;8.69;37.66;101362.50;5588385;31;33532;-64
2022/04/17 07:05:25;;;;;;;3.08;1.37;;;;;;;8.58;37.07;101367.88;5588175;31;33278;-63
2022/04/17 07:08:28;;;;;;;3.33;1.10;;;;;;;8.38;37.19;101367.88;5588971;31;34098;-64
2022/04/17 07:11:31;;;;;;;1.55;1.08;;;;;;;8.58;36.68;101367.88;5588999;31;34607;-64
2022/04/17 07:14:34;;;;;;;1.62;1.10;;;;;;;8.66;36.47;101360.16;5588286;31;32740;-64
2022/04/17 07:17:39;;;;;;;2.28;1.20;;;;;;;8.56;36.05;101366.34;5588127;31;32828;-64
2022/04/17 07:20:41;;;;;;;1.77;1.10;;;;;;;9.03;35.73;101359.59;5588581;31;33896;-64
2022/04/17 07:23:46;;;;;;;3.78;1.05;;;;;;;9.69;34.63;101363.34;5589781;31;34558;-64
2022/04/17 07:26:53;;;;;;;1.48;1.02;;;;;;;10.06;33.72;101362.69;5590839;31;34651;-64
2022/04/17 07:29:56;;;;;;;1.23;0.98;;;;;;;10.31;33.92;101364.78;5591036;31;34865;-65
2022/04/17 07:33:00;;;;;;;1.90;0.90;;;;;;;11.34;32.83;101373.47;5590485;31;33422;-65
2022/04/17 07:36:03;;;;;;;1.10;0.90;;;;;;;10.34;32.85;101369.81;5590221;31;33092;-65
2022/04/17 07:39:06;;;;;;;1.05;0.90;;;;;;;10.80;32.62;101372.47;5590328;31;32792;-65
2022/04/17 07:42:09;;;;;;;2.37;1.30;;;;;;;10.64;32.78;101366.09;5589973;31;33941;-64
2022/04/17 07:45:13;;;;;;;1.15;0.80;;;;;;;11.67;31.70;101370.19;5590409;31;33949;-64
2022/04/17 07:48:15;;;;;;;1.52;1.08;;;;;;;11.96;30.67;101361.19;5590100;31;32344;-64
2022/04/17 07:51:18;;;;;;;1.10;0.80;;;;;;;11.47;31.42;101368.66;5589665;31;33491;-64
2022/04/17 07:54:21;;;;;;;2.70;1.00;;;;;;;11.62;30.91;101356.50;5589934;31;32329;-64
2022/04/17 07:57:23;;;;;;;1.95;1.00;;;;;;;12.24;30.45;101349.47;5589892;31;33629;-64
2022/04/17 08:00:31;;;;;;;1.50;1.00;;;;;;;12.10;30.63;101356.16;5589477;31;33314;-65
2022/04/17 08:03:50;;;;;;;2.22;1.15;;;;;;;11.24;32.13;101354.09;5590671;31;34400;-64
2022/04/17 08:06:55;;;;;;;3.70;1.15;;;;;;;10.70;32.86;101346.94;5589936;31;32584;-64
2022/04/17 08:09:58;;;;;;;2.03;1.30;;;;;;;11.34;32.86;101349.56;5590395;31;34005;-64
2022/04/17 08:13:01;;;;;;;2.03;1.12;;;;;;;11.80;31.24;101345.94;5589990;31;33056;-65
2022/04/17 08:16:05;;;;;;;2.00;1.15;;;;;;;11.98;31.15;101351.25;5576599;31;32474;-64
2022/04/17 08:19:15;;;;;;;2.17;0.98;;;;;;;10.70;32.00;101350.41;5589867;31;33960;-65
2022/04/17 08:22:17;;;;;;;1.40;1.10;;;;;;;10.58;32.57;101345.44;5589638;31;32315;-64
2022/04/17 08:25:20;;;;;;;1.90;1.10;;;;;;;11.97;30.96;101330.94;5590284;31;35267;-65
2022/04/17 08:28:23;;;;;;;1.77;0.80;;;;;;;11.80;31.26;101334.47;5589251;31;33170;-65
2022/04/17 08:31:26;;;;;;;1.42;1.20;;;;;;;11.88;30.83;101324.72;5589225;31;32742;-65
2022/04/17 08:34:28;;;;;;;2.87;1.23;;;;;;;12.47;30.38;101318.69;5589389;31;32377;-65
2022/04/17 08:37:31;;;;;;;2.03;1.20;;;;;;;12.90;30.55;101319.56;5590184;31;33999;-65
2022/04/17 08:40:34;;;;;;;1.27;0.90;;;;;;;13.30;29.31;101314.44;5590099;31;33987;-66
2022/04/17 08:43:37;;;;;;;1.37;1.02;;;;;;;12.92;29.32;101322.91;5589291;31;33046;-65
2022/04/17 08:46:41;;;;;;;1.25;0.98;;;;;;;12.88;29.69;101306.41;5589559;31;32525;-65
2022/04/17 08:49:45;;;;;;;2.45;1.40;;;;;;;14.54;27.89;101304.44;5576219;31;33086;-66
2022/04/17 08:52:50;;;;;;;1.42;0.98;;;;;;;14.26;27.83;101304.81;5588959;31;33181;-66
2022/04/17 08:55:53;;;;;;;1.42;0.98;;;;;;;14.15;28.22;101291.81;5589498;31;34538;-66
2022/04/17 08:58:56;;;;;;;2.00;1.00;;;;;;;13.99;28.12;101299.81;5589353;31;33530;-65
2022/04/17 09:02:07;;;;;;;1.27;0.80;;;;;;;13.46;28.68;101290.44;5589015;31;34278;-66
2022/04/17 09:05:12;;;;;;;1.90;1.23;;;;;;;13.88;28.26;101290.34;5588998;31;32753;-65
2022/04/17 09:08:17;;;;;;;2.08;0.98;;;;;;;14.73;26.96;101278.19;5589905;31;33894;-64
2022/04/17 09:11:25;;;;;;;2.03;1.10;;;;;;;17.36;24.37;101279.81;5588861;31;35104;-64
2022/04/17 09:14:27;;;;;;;1.33;0.85;;;;;;;15.87;25.36;101278.34;5590003;31;34008;-65
2022/04/17 09:17:32;;;;;;;1.33;1.00;;;;;;;15.09;25.64;101273.19;5589933;31;34052;-65
2022/04/17 09:20:34;;;;;;;1.27;1.00;;;;;;;15.53;25.23;101264.56;5576128;31;32794;-65
2022/04/17 09:23:40;;;;;;;1.80;1.10;;;;;;;15.10;26.86;101266.81;5588892;31;33134;-65
2022/04/17 09:26:58;;;;;;;2.03;0.95;;;;;;;16.60;25.03;101261.56;5589694;31;34594;-66
2022/04/17 09:30:01;;;;;;;1.92;1.02;;;;;;;15.97;24.78;101254.00;5588868;31;32853;-65
2022/04/17 09:33:13;;;;;;;1.85;1.08;;;;;;;13.47;28.36;101241.47;5588750;31;34350;-64
2022/04/17 09:36:15;;;;;;;1.73;1.00;;;;;;;13.44;28.76;101252.47;5589707;31;33994;-65
2022/04/17 09:39:20;;;;;;;1.58;0.98;;;;;;;14.79;26.42;101242.75;5576376;31;33329;-65
2022/04/17 09:42:26;;;;;;;2.65;0.90;;;;;;;14.97;26.34;101242.50;5588916;31;33994;-64
2022/04/17 09:45:29;;;;;;;1.90;1.08;;;;;;;17.45;23.40;101226.87;5588414;31;33267;-64
2022/04/17 09:48:44;;;;;;;1.77;1.20;;;;;;;17.90;23.21;101222.97;5589026;31;34545;-65
2022/04/17 09:51:47;;;;;;;2.22;0.90;;;;;;;18.39;23.03;101228.25;5588759;31;32642;-65
2022/04/17 09:54:50;;;;;;;1.50;1.00;;;;;;;17.80;23.66;101222.47;5589765;31;34603;-65
2022/04/17 09:57:57;;;;;;;1.42;0.90;;;;;;;14.68;26.81;101216.44;5589843;31;33994;-64
2022/04/17 10:01:00;;;;;;;1.52;0.80;;;;;;;13.94;28.19;101209.63;5589716;31;34150;-65
2022/04/17 10:04:05;;;;;;;2.42;1.00;;;;;;;13.13;29.30;101205.28;5588355;31;34120;-64
2022/04/17 10:07:11;;;;;;;3.53;0.77;;;;;;;13.24;27.02;101192.50;5588944;31;32757;-64
2022/04/17 10:10:15;;;;;;;1.40;0.93;;;;;;;13.04;28.61;101204.41;5588422;31;33816;-65
2022/04/17 10:13:20;;;;;;;3.20;0.90;;;;;;;11.69;29.45;101197.28;5575485;31;33934;-64
2022/04/17 10:16:25;;;;;;;4.10;1.00;;;;;;;11.42;30.01;101190.25;5589403;31;34096;-65
2022/04/17 10:19:28;;;;;;;1.00;0.80;;;;;;;10.91;30.24;101201.53;5588703;31;34630;-64
2022/04/17 10:22:34;;;;;;;1.77;0.90;;;;;;;10.56;31.73;101202.31;5589456;31;34032;-64
2022/04/17 10:25:41;;;;;;;1.48;1.10;;;;;;;10.41;32.59;101201.12;5588513;31;32543;-64
2022/04/17 10:28:49;;;;;;;0.98;0.80;;;;;;;11.06;32.57;101191.25;5581600;31;228330;-64
2022/04/17 10:32:19;;;;;;;1.20;0.82;;;;;;;10.92;31.48;101184.62;5588880;31;34487;-64
2022/04/17 10:35:37;;;;;;;1.90;0.98;;;;;;;11.01;30.30;101175.78;5588029;31;33600;-64
2022/04/17 10:39:13;;;;;;;1.42;0.90;;;;;;;10.98;31.28;101175.25;5589624;31;34113;-64
2022/04/17 10:42:15;;;;;;;0.98;0.70;;;;;;;12.80;26.50;101167.91;5589196;31;34029;-64
2022/04/17 10:45:18;;;;;;;1.40;0.90;;;;;;;15.38;23.87;101160.22;5589377;31;34300;-64
2022/04/17 10:48:27;;;;;;;1.10;0.80;;;;;;;15.76;24.01;101149.53;5588509;31;33447;-64
2022/04/17 10:51:32;;;;;;;1.20;0.80;;;;;;;13.87;25.24;101155.31;5588073;31;33480;-65
2022/04/17 10:55:08;;;;;;;1.35;0.68;;;;;;;15.56;24.42;101150.03;5588397;31;32369;-64
2022/04/17 10:58:14;;;;;;;1.10;0.85;;;;;;;13.85;25.77;101151.13;5588892;31;35222;-65
2022/04/17 11:01:43;;;;;;;1.98;0.80;;;;;;;17.03;22.77;101141.06;5588377;31;33128;-64
2022/04/17 11:04:53;;;;;;;1.87;0.80;;;;;;;19.43;19.75;101140.03;5587757;31;33891;-64
2022/04/17 11:08:16;;;;;;;;;;;;;;;19.82;19.59;101155.37;5588605;31;32929;-64
2022/04/17 11:11:18;;;;;;;1.50;0.93;;;;;;;19.90;20.04;101136.28;5574890;31;34618;-64
2022/04/17 11:14:23;;;;;;;1.08;0.55;;;;;;;16.93;21.68;101130.66;5575275;31;32843;-64
2022/04/17 11:17:28;;;;;;;1.48;0.70;;;;;;;15.15;22.65;101130.00;5588925;31;33438;-65
2022/04/17 11:20:32;;;;;;;0.80;0.70;;;;;;;17.50;21.38;101132.41;5575134;31;33659;-65
2022/04/17 11:23:53;;;;;;;1.25;0.80;;;;;;;19.84;18.72;101119.13;5588289;31;32543;-65
2022/04/17 11:26:56;;;;;;;0.90;0.70;;;;;;;18.95;19.37;101115.19;5588758;31;33928;-66
2022/04/17 11:29:59;;;;;;;1.37;0.77;;;;;;;21.09;17.75;101109.66;5588531;31;34593;-65
2022/04/17 11:33:04;;;;;;;1.50;0.80;;;;;;;19.05;20.30;101108.37;5588047;31;32556;-64
2022/04/17 11:36:09;;;;;;;2.75;0.80;;;;;;;15.65;23.50;101111.50;5588585;31;33964;-64
2022/04/17 11:39:12;;;;;;;1.83;0.75;;;;;;;17.28;22.04;101110.16;5587663;31;33503;-66
2022/04/17 11:42:15;;;;;;;1.55;0.80;;;;;;;17.84;20.56;101105.63;5588435;31;34120;-64
2022/04/17 11:45:21;;;;;;;1.10;0.80;;;;;;;18.31;20.56;101094.09;5574629;31;33663;-64
2022/04/17 11:48:28;;;;;;;0.70;0.70;;;;;;;20.89;18.51;101082.81;5587539;31;32405;-64
2022/04/17 11:51:31;;;;;;;1.05;0.80;;;;;;;14.76;24.33;101093.50;5587209;31;32848;-64
2022/04/17 11:54:37;;;;;;;1.37;0.82;;;;;;;13.96;25.75;101078.75;5574595;31;32819;-66
2022/04/17 11:57:39;;;;;;;1.60;0.75;;;;;;;16.71;22.47;101076.22;5588130;31;34310;-67
2022/04/17 12:00:42;;;;;;;1.20;0.70;;;;;;;17.42;21.43;101098.50;5587088;31;33398;-65
2022/04/17 12:03:45;;;;;;;0.80;0.62;;;;;;;17.18;22.34;101074.81;5587382;31;32357;-65
2022/04/17 12:06:54;;;;;;;4.68;0.80;;;;;;;16.01;23.06;101084.03;5587289;31;32430;-64
2022/04/17 12:10:08;;;;;;;2.60;0.70;;;;;;;14.10;25.04;101079.84;5588249;31;33554;-65
2022/04/17 12:13:20;;;;;;;0.98;0.80;;;;;;;14.71;24.09;101076.38;5590657;31;34034;-64
2022/04/17 12:16:23;;;;;;;0.90;0.77;;;;;;;15.08;23.45;101070.25;5590077;31;33341;-65
2022/04/17 12:19:26;;;;;;;1.17;0.80;;;;;;;16.24;22.00;101057.13;5589542;31;32491;-64
2022/04/17 12:22:30;;;;;;;0.85;0.70;;;;;;;18.05;20.49;101069.81;5589978;31;32736;-64
2022/04/17 12:25:32;;;;;;;1.42;0.80;;;;;;;17.52;21.38;101069.50;5590726;31;34040;-64
2022/04/17 12:28:36;;;;;;;0.68;0.55;;;;;;;18.64;19.83;101061.97;5589345;31;34089;-67
2022/04/17 12:31:39;;;;;;;1.08;0.80;;;;;;;16.03;22.02;101060.56;5589262;31;33247;-67
2022/04/17 12:34:46;;;;;;;1.30;0.85;;;;;;;17.03;21.11;101048.06;5590882;31;34238;-64
2022/04/17 12:37:49;;;;;;;0.70;0.60;;;;;;;19.92;19.01;101046.19;5589605;31;33380;-65
2022/04/17 12:40:52;;;;;;;1.00;0.70;;;;;;;20.07;18.07;101039.69;5589150;31;33276;-65
2022/04/17 12:43:54;;;;;;;1.50;1.00;;;;;;;20.93;17.97;101051.66;5576090;31;33326;-65
2022/04/17 12:47:14;;;;;;;1.67;1.00;;;;;;;20.82;17.67;101037.00;5590221;31;34108;-66
2022/04/17 12:50:17;;;;;;;1.50;0.90;;;;;;;19.52;19.26;101029.31;5590204;31;34709;-65
2022/04/17 12:53:20;;;;;;;2.90;0.75;;;;;;;16.40;21.60;101022.91;5589401;31;32435;-65
2022/04/17 12:56:27;;;;;;;2.22;0.70;;;;;;;14.16;23.71;101031.97;5589165;31;33356;-67
2022/04/17 13:00:13;;;;;;;0.80;0.70;;;;;;;15.18;22.89;101030.72;5589410;31;34245;-65
2022/04/17 13:03:16;;;;;;;1.10;0.60;;;;;;;19.09;19.40;101026.22;5560296;31;33795;-65
2022/04/17 13:06:21;;;;;;;1.42;0.80;;;;;;;20.45;18.32;101015.50;5588986;31;32785;-65
2022/04/17 13:09:27;;;;;;;1.67;0.90;;;;;;;22.93;16.52;101015.66;5576469;31;32498;-65
2022/04/17 13:12:32;;;;;;;0.80;0.62;;;;;;;21.79;17.23;101007.66;5588779;31;33973;-65
2022/04/17 13:15:37;;;;;;;1.12;0.60;;;;;;;15.99;21.55;101005.75;5589823;31;33994;-65
2022/04/17 13:18:40;;;;;;;1.37;0.70;;;;;;;17.00;21.34;100994.00;5589022;31;32591;-65
2022/04/17 13:22:03;;;;;;;1.30;0.70;;;;;;;18.12;19.04;100990.09;5588142;31;32553;-64
2022/04/17 13:25:07;;;;;;;0.70;0.60;;;;;;;18.08;19.08;100997.75;5589585;31;34323;-64
2022/04/17 13:28:11;;;;;;;1.90;0.73;;;;;;;19.26;18.41;100998.91;5588991;31;33371;-66
2022/04/17 13:31:14;;;;;;;1.65;0.80;;;;;;;19.87;17.92;100986.75;5588722;31;33920;-64
2022/04/17 13:34:17;;;;;;;0.73;0.65;;;;;;;20.45;17.67;100980.44;5588852;31;32511;-65
2022/04/17 13:40:42;;;;;;;1.35;0.77;;;;;;;21.94;16.15;100960.31;5588957;31;33296;-66
2022/04/17 13:43:44;;;;;;;1.08;0.80;;;;;;;20.65;17.76;100956.88;5589359;31;34870;-65
2022/04/17 13:46:47;;;;;;;1.33;0.80;;;;;;;19.90;18.79;100956.69;5588770;31;33524;-65
2022/04/17 13:49:50;;;;;;;1.75;0.60;;;;;;;20.69;17.85;100955.37;5589694;31;33997;-66
2022/04/17 13:52:52;;;;;;;0.98;0.60;;;;;;;21.56;16.77;100955.16;5588551;31;33213;-65
2022/04/17 13:55:55;;;;;;;1.02;0.85;;;;;;;21.99;16.44;100949.66;5588854;31;32654;-66
2022/04/17 13:58:57;;;;;;;0.80;0.60;;;;;;;19.95;17.96;100943.41;5589492;31;35279;-66
2022/04/17 14:02:00;;;;;;;0.88;0.70;;;;;;;17.24;20.27;100943.44;5589114;31;32565;-65
2022/04/17 14:05:04;;;;;;;1.60;0.82;;;;;;;15.81;22.02;100931.25;5589091;31;34177;-64
2022/04/17 14:08:07;;;;;;;1.20;0.77;;;;;;;14.55;22.91;100941.13;5588751;31;32586;-65
2022/04/17 14:11:16;;;;;;;1.85;0.73;;;;;;;14.49;23.40;100933.00;5588432;31;33320;-65
2022/04/17 14:14:18;;;;;;;1.00;0.70;;;;;;;15.84;22.59;100927.34;5588584;31;33096;-65
2022/04/17 14:17:21;;;;;;;1.20;0.75;;;;;;;17.02;20.82;100911.53;5588897;31;32424;-65
2022/04/17 14:20:24;;;;;;;1.25;0.80;;;;;;;16.95;20.86;100920.38;5588907;31;33239;-64
2022/04/17 14:23:26;;;;;;;2.80;0.60;;;;;;;15.42;21.68;100909.34;5588823;31;33389;-64
2022/04/17 14:26:29;;;;;;;1.48;0.90;;;;;;;16.81;20.98;100910.59;5588730;31;33976;-64
2022/04/17 14:29:32;;;;;;;1.87;0.85;;;;;;;19.90;18.04;100902.00;5589158;31;33999;-65
2022/04/17 14:32:35;;;;;;;1.40;0.80;;;;;;;20.06;17.86;100895.28;5587776;31;32678;-65
2022/04/17 14:35:38;;;;;;;1.83;0.93;;;;;;;19.23;19.43;100903.31;5588116;31;34064;-65